Time;durP1;ratioP1;P1;durP2;ratioP2;P2;SDS_P1;SDS_P2;PMS_P1;PMS_P2;Temp;Humidity;BMP_temperature;BMP_pressure;BME280_temperature;BME280_humidity;BME280_pressure;Samples;Min_cycle;Max_cycle;Signal;HPM_P1;HPM_P2
2022/09/09 00:00:40;;;;;;;;;;;;;;;13.11;68.56;100249.09;89544;1260;81784;-60
2022/09/09 00:03:13;;;;;;;;;;;;;;;13.09;68.35;100251.60;89517;1260;99797;-60
2022/09/09 00:05:28;;;;;;;;;;;;;;;13.09;68.78;100251.87;89517;1260;87373;-62
2022/09/09 00:07:44;;;;;;;;;;;;;;;13.04;68.55;100249.60;89482;1260;93557;-63
2022/09/09 00:09:55;;;;;;;;;;;;;;;13.07;68.60;100249.11;89521;1260;79291;-58
2022/09/09 00:12:09;;;;;;;;;;;;;;;13.08;68.53;100244.83;89531;1260;81241;-59
2022/09/09 00:14:24;;;;;;;;;;;;;;;13.04;69.05;100248.60;89512;1260;98124;-62
2022/09/09 00:16:34;;;;;;;;;;;;;;;12.97;69.52;100252.20;89499;1260;87192;-62
2022/09/09 00:18:53;;;;;;;;;;;;;;;12.92;69.50;100253.26;89512;1260;94248;-59
2022/09/09 00:21:04;;;;;;;;;;;;;;;12.79;69.74;100244.29;89496;1260;80188;-59
2022/09/09 00:23:19;;;;;;;;;;;;;;;12.74;69.82;100242.70;89475;1260;82194;-58
2022/09/09 00:25:29;;;;;;;;;;;;;;;12.65;70.89;100239.23;89475;1260;99345;-61
2022/09/09 00:27:41;;;;;;;;;;;;;;;12.61;71.32;100241.10;89493;1260;88458;-61
2022/09/09 00:29:55;;;;;;;;;;;;;;;12.61;70.98;100241.36;89480;1260;93940;-57
2022/09/09 00:32:15;;;;;;;;;;;;;;;12.61;71.15;100240.98;89463;1260;81838;-58
2022/09/09 00:34:27;;;;;;;;;;;;;;;12.63;71.53;100242.35;89348;1260;81254;-59
2022/09/09 00:36:36;;;;;;;;;;;;;;;12.65;71.23;100237.73;89196;1260;98789;-61
2022/09/09 00:38:49;;;;;;;;;;;;;;;12.67;71.30;100244.99;89161;1263;86281;-61
2022/09/09 00:41:02;;;;;;;;;;;;;;;12.71;71.90;100243.91;89143;1263;93634;-61
2022/09/09 00:43:22;;;;;;;;;;;;;;;12.70;72.14;100242.52;89148;1261;81972;-62
2022/09/09 00:45:53;;;;;;;;;;;;;;;12.71;72.18;100241.74;89171;1263;82054;-59
2022/09/09 00:48:03;;;;;;;;;;;;;;;12.77;71.71;100239.96;89143;1262;98057;-59
2022/09/09 00:50:24;;;;;;;;;;;;;;;12.81;72.20;100239.95;89222;1262;87412;-64
2022/09/09 00:52:40;;;;;;;;;;;;;;;12.81;71.94;100241.25;89176;1263;93369;-64
2022/09/09 00:54:53;;;;;;;;;;;;;;;12.81;72.25;100236.91;89252;1263;81123;-59
2022/09/09 00:57:12;;;;;;;;;;;;;;;12.83;73.41;100231.70;89236;1263;82623;-58
2022/09/09 00:59:29;;;;;;;;;;;;;;;12.81;72.53;100235.25;89269;1263;99255;-59
2022/09/09 01:01:37;;;;;;;;;;;;;;;12.80;72.73;100231.12;89144;1263;87369;-59
2022/09/09 01:03:50;;;;;;;;;;;;;;;12.77;73.19;100233.33;89167;1263;94396;-61
2022/09/09 01:06:13;;;;;;;;;;;;;;;12.73;73.14;100235.61;89129;1263;80467;-60
2022/09/09 01:08:34;;;;;;;;;;;;;;;12.66;73.29;100230.27;89172;1262;81787;-61
2022/09/09 01:10:49;;;;;;;;;;;;;;;12.61;73.61;100238.52;89139;1263;99716;-60
2022/09/09 01:12:57;;;;;;;;;;;;;;;12.56;73.88;100237.42;89161;1263;88636;-59
2022/09/09 01:15:12;;;;;;;;;;;;;;;12.48;74.36;100240.00;89113;1263;94385;-60
2022/09/09 01:17:24;;;;;;;;;;;;;;;12.46;74.31;100232.91;89156;1262;81941;-59
2022/09/09 01:19:41;;;;;;;;;;;;;;;12.46;74.83;100233.08;89170;1261;82411;-64
2022/09/09 01:21:55;;;;;;;;;;;;;;;12.46;74.74;100230.66;89151;1262;100106;-64
2022/09/09 01:24:26;;;;;;;;;;;;;;;12.51;75.03;100229.91;89141;1261;86923;-60
2022/09/09 01:26:36;;;;;;;;;;;;;;;12.52;74.66;100226.95;89126;1263;93864;-59
2022/09/09 01:28:46;;;;;;;;;;;;;;;12.54;74.67;100222.96;89159;1263;82000;-57
2022/09/09 01:30:54;;;;;;;;;;;;;;;12.54;75.21;100224.21;89209;1263;81572;-58
2022/09/09 01:33:02;;;;;;;;;;;;;;;12.57;75.08;100217.30;89167;1262;98285;-57
2022/09/09 01:35:12;;;;;;;;;;;;;;;12.61;74.72;100213.88;89228;1261;88015;-57
2022/09/09 01:37:19;;;;;;;;;;;;;;;12.59;74.97;100221.71;89232;1262;94062;-57
2022/09/09 01:39:27;;;;;;;;;;;;;;;12.57;75.95;100224.29;89233;1262;80719;-61
2022/09/09 01:41:34;;;;;;;;;;;;;;;12.57;75.07;100224.71;89190;1262;82002;-63
2022/09/09 01:43:42;;;;;;;;;;;;;;;12.56;74.75;100228.09;89242;1262;98623;-58
2022/09/09 01:45:51;;;;;;;;;;;;;;;12.48;75.08;100226.33;89187;1262;87729;-59
2022/09/09 01:47:58;;;;;;;;;;;;;;;12.51;74.80;100226.20;89183;1261;94489;-58
2022/09/09 01:50:08;;;;;;;;;;;;;;;12.57;74.82;100223.77;89118;1263;81715;-58
2022/09/09 01:52:14;;;;;;;;;;;;;;;12.62;75.37;100227.85;89199;1262;81719;-57
2022/09/09 01:54:23;;;;;;;;;;;;;;;12.61;75.49;100230.43;89195;1263;99630;-60
2022/09/09 01:56:41;;;;;;;;;;;;;;;12.61;75.46;100228.68;89182;1262;87590;-61
2022/09/09 01:58:58;;;;;;;;;;;;;;;12.62;75.48;100225.98;89143;1262;93858;-61
2022/09/09 02:01:14;;;;;;;;;;;;;;;12.63;75.60;100223.52;89167;1263;81516;-62
2022/09/09 02:03:25;;;;;;;;;;;;;;;12.67;75.60;100223.31;89125;1263;81543;-59
2022/09/09 02:05:38;;;;;;;;;;;;;;;12.64;75.77;100219.71;89165;1262;98605;-57
2022/09/09 02:07:48;;;;;;;;;;;;;;;12.61;76.13;100216.26;89198;1261;86022;-58
2022/09/09 02:10:02;;;;;;;;;;;;;;;12.65;75.79;100220.13;89170;1261;94136;-62
2022/09/09 02:12:15;;;;;;;;;;;;;;;12.68;75.36;100218.42;89131;1263;80444;-62
2022/09/09 02:14:26;;;;;;;;;;;;;;;12.67;75.76;100221.89;89207;1262;81772;-60
2022/09/09 02:16:39;;;;;;;;;;;;;;;12.63;75.96;100219.92;89179;1262;99659;-60
2022/09/09 02:18:50;;;;;;;;;;;;;;;12.54;76.48;100218.20;89169;1262;88034;-62
2022/09/09 02:20:57;;;;;;;;;;;;;;;12.52;76.02;100212.08;89188;1262;95344;-61
2022/09/09 02:23:05;;;;;;;;;;;;;;;12.49;75.96;100210.23;89184;1262;80490;-62
2022/09/09 02:25:17;;;;;;;;;;;;;;;12.48;76.18;100204.90;89239;1263;80980;-58
2022/09/09 02:27:24;;;;;;;;;;;;;;;12.53;76.24;100210.45;89263;1262;99840;-57
2022/09/09 02:29:37;;;;;;;;;;;;;;;12.54;76.01;100211.32;89242;1263;87938;-61
2022/09/09 02:31:46;;;;;;;;;;;;;;;12.59;75.90;100214.67;89139;1263;94907;-62
2022/09/09 02:33:58;;;;;;;;;;;;;;;12.59;76.35;100218.88;89143;1262;81980;-62
2022/09/09 02:36:08;;;;;;;;;;;;;;;12.64;76.11;100219.89;89206;1263;82086;-62
2022/09/09 02:38:17;;;;;;;;;;;;;;;12.65;76.17;100223.76;89223;1262;98392;-63
2022/09/09 02:40:24;;;;;;;;;;;;;;;12.65;76.74;100226.52;89210;1262;88075;-62
2022/09/09 02:42:31;;;;;;;;;;;;;;;12.65;76.48;100229.84;89189;1263;94236;-61
2022/09/09 02:44:40;;;;;;;;;;;;;;;12.68;76.29;100229.83;89170;1262;78980;-60
2022/09/09 02:47:00;;;;;;;;;;;;;;;12.66;76.20;100228.94;89177;1262;82136;-59
2022/09/09 02:49:12;;;;;;;;;;;;;;;12.64;76.55;100233.89;89163;1262;99334;-62
2022/09/09 02:51:25;;;;;;;;;;;;;;;12.65;76.31;100229.15;89188;1261;88961;-61
2022/09/09 02:53:40;;;;;;;;;;;;;;;12.61;76.34;100233.86;89177;1262;95637;-62
2022/09/09 02:55:51;;;;;;;;;;;;;;;12.59;76.36;100235.64;89160;1263;81754;-61
2022/09/09 02:57:59;;;;;;;;;;;;;;;12.59;76.49;100235.60;89185;1262;82712;-61
2022/09/09 03:00:11;;;;;;;;;;;;;;;12.54;76.61;100232.54;89206;1261;97714;-56
2022/09/09 03:02:19;;;;;;;;;;;;;;;12.53;76.73;100229.49;89209;1261;86573;-57
2022/09/09 03:04:27;;;;;;;;;;;;;;;12.57;76.71;100223.84;89048;1263;92534;-59
2022/09/09 03:06:35;;;;;;;;;;;;;;;12.62;76.78;100223.19;89218;1262;80880;-59
2022/09/09 03:08:42;;;;;;;;;;;;;;;12.60;77.07;100223.77;89291;1262;80998;-60
2022/09/09 03:10:54;;;;;;;;;;;;;;;12.63;77.01;100222.39;89232;1262;98912;-60
2022/09/09 03:13:01;;;;;;;;;;;;;;;12.63;77.36;100225.36;89216;1261;88595;-61
2022/09/09 03:15:10;;;;;;;;;;;;;;;12.63;77.74;100229.60;89261;1263;95456;-57
2022/09/09 03:17:18;;;;;;;;;;;;;;;12.66;77.13;100229.90;89218;1263;79614;-58
2022/09/09 03:19:25;;;;;;;;;;;;;;;12.71;77.11;100225.80;89204;1261;81032;-61
2022/09/09 03:21:32;;;;;;;;;;;;;;;12.76;77.16;100225.82;89202;1263;99902;-60
2022/09/09 03:23:39;;;;;;;;;;;;;;;12.76;77.32;100228.81;89194;1262;87914;-61
2022/09/09 03:25:51;;;;;;;;;;;;;;;12.75;77.23;100226.85;89145;1262;93283;-60
2022/09/09 03:27:59;;;;;;;;;;;;;;;12.76;76.99;100221.69;89183;1262;80599;-59
2022/09/09 03:30:08;;;;;;;;;;;;;;;12.75;77.14;100220.09;89140;1263;81599;-57
2022/09/09 03:32:15;;;;;;;;;;;;;;;12.74;77.09;100222.77;89201;1261;99917;-57
2022/09/09 03:34:22;;;;;;;;;;;;;;;12.69;77.01;100214.71;89137;1263;87408;-59
2022/09/09 03:36:29;;;;;;;;;;;;;;;12.68;76.91;100216.06;89181;1261;95346;-59
2022/09/09 03:38:36;;;;;;;;;;;;;;;12.67;76.92;100213.88;89163;1261;79008;-61
2022/09/09 03:40:51;;;;;;;;;;;;;;;12.62;77.17;100217.52;89230;1262;82317;-60
2022/09/09 03:42:59;;;;;;;;;;;;;;;12.60;77.16;100216.88;89168;1262;98671;-59
2022/09/09 03:45:09;;;;;;;;;;;;;;;12.56;77.51;100219.34;89224;1262;88930;-56
2022/09/09 03:47:15;;;;;;;;;;;;;;;12.50;77.48;100221.52;89181;1262;94782;-55
2022/09/09 03:49:24;;;;;;;;;;;;;;;12.45;77.63;100226.77;89175;1263;81839;-60
2022/09/09 03:51:31;;;;;;;;;;;;;;;12.46;77.56;100225.23;89177;1262;81492;-61
2022/09/09 03:53:38;;;;;;;;;;;;;;;12.45;78.13;100234.61;89229;1262;99009;-60
2022/09/09 03:55:48;;;;;;;;;;;;;;;12.46;78.17;100231.98;89302;1262;88711;-60
2022/09/09 03:57:55;;;;;;;;;;;;;;;12.48;78.04;100234.56;89252;1262;94539;-61
2022/09/09 04:00:06;;;;;;;;;;;;;;;12.54;78.07;100232.46;89208;1262;82046;-62
2022/09/09 04:02:13;;;;;;;;;;;;;;;12.59;78.42;100233.94;89278;1262;82708;-61
2022/09/09 04:04:21;;;;;;;;;;;;;;;12.55;78.30;100232.34;89247;1262;98300;-59
2022/09/09 04:06:29;;;;;;;;;;;;;;;12.61;78.26;100228.89;89194;1261;89208;-59
2022/09/09 04:08:38;;;;;;;;;;;;;;;12.64;78.21;100226.27;89231;1261;93665;-61
2022/09/09 04:10:47;;;;;;;;;;;;;;;12.68;78.38;100224.30;89193;1263;81169;-62
2022/09/09 04:12:54;;;;;;;;;;;;;;;12.72;78.29;100221.89;89226;1263;81618;-62
2022/09/09 04:15:03;;;;;;;;;;;;;;;12.76;78.15;100222.23;89200;1263;97161;-60
2022/09/09 04:17:10;;;;;;;;;;;;;;;12.81;78.12;100225.37;89186;1262;88096;-61
2022/09/09 04:19:16;;;;;;;;;;;;;;;12.83;78.21;100217.86;89172;1261;95292;-59
2022/09/09 04:21:23;;;;;;;;;;;;;;;12.89;78.10;100218.60;89237;1261;80617;-60
2022/09/09 04:23:31;;;;;;;;;;;;;;;12.97;78.06;100218.36;89215;1261;82479;-61
2022/09/09 04:25:38;;;;;;;;;;;;;;;12.98;77.97;100221.39;89183;1263;98174;-59
2022/09/09 04:27:45;;;;;;;;;;;;;;;12.99;77.96;100222.86;89259;1261;88006;-59
2022/09/09 04:29:56;;;;;;;;;;;;;;;12.91;78.12;100225.83;89218;1262;93841;-60
2022/09/09 04:32:06;;;;;;;;;;;;;;;12.86;78.11;100226.11;89231;1261;78854;-60
2022/09/09 04:34:13;;;;;;;;;;;;;;;12.81;78.07;100229.33;89271;1262;81177;-59
2022/09/09 04:36:21;;;;;;;;;;;;;;;12.80;78.47;100226.99;89264;1262;99659;-58
2022/09/09 04:38:31;;;;;;;;;;;;;;;12.77;78.25;100223.11;89259;1262;88363;-57
2022/09/09 04:40:42;;;;;;;;;;;;;;;12.76;78.35;100221.64;89275;1262;94021;-57
2022/09/09 04:42:50;;;;;;;;;;;;;;;12.77;78.39;100224.69;89230;1263;82217;-57
2022/09/09 04:44:57;;;;;;;;;;;;;;;12.76;78.53;100227.90;89277;1262;82185;-57
2022/09/09 04:47:07;;;;;;;;;;;;;;;12.76;78.92;100225.73;89204;1262;98719;-57
2022/09/09 04:49:16;;;;;;;;;;;;;;;12.75;78.87;100229.02;89178;1263;88695;-54
2022/09/09 04:51:23;;;;;;;;;;;;;;;12.78;78.80;100230.90;89219;1262;92431;-56
2022/09/09 04:53:33;;;;;;;;;;;;;;;12.79;78.94;100231.95;89181;1262;82032;-58
2022/09/09 04:55:41;;;;;;;;;;;;;;;12.79;79.70;100239.80;89222;1263;82837;-58
2022/09/09 04:57:49;;;;;;;;;;;;;;;12.84;79.25;100240.63;89196;1262;98484;-59
2022/09/09 04:59:56;;;;;;;;;;;;;;;12.91;79.03;100241.30;89221;1263;86277;-59
2022/09/09 05:02:03;;;;;;;;;;;;;;;12.91;79.03;100245.42;89083;1263;94794;-60
2022/09/09 05:04:12;;;;;;;;;;;;;;;12.94;78.95;100240.84;89188;1263;81654;-55
2022/09/09 05:06:22;;;;;;;;;;;;;;;12.97;79.01;100241.50;89237;1261;82331;-56
2022/09/09 05:08:29;;;;;;;;;;;;;;;13.02;78.94;100241.92;89231;1263;99647;-60
2022/09/09 05:10:38;;;;;;;;;;;;;;;13.04;79.23;100245.55;89175;1262;88302;-62
2022/09/09 05:12:52;;;;;;;;;;;;;;;13.00;79.16;100243.14;89218;1262;93715;-61
2022/09/09 05:14:59;;;;;;;;;;;;;;;13.03;79.02;100240.71;89220;1262;80435;-59
2022/09/09 05:17:07;;;;;;;;;;;;;;;13.07;78.94;100242.61;89243;1263;83116;-60
2022/09/09 05:19:18;;;;;;;;;;;;;;;13.10;78.91;100241.27;89243;1261;97545;-57
2022/09/09 05:21:27;;;;;;;;;;;;;;;13.14;78.84;100236.53;89203;1262;88557;-58
2022/09/09 05:23:35;;;;;;;;;;;;;;;13.17;78.85;100241.02;89338;1262;94903;-59
2022/09/09 05:25:43;;;;;;;;;;;;;;;13.13;78.69;100238.86;89294;1263;78302;-60
2022/09/09 05:27:50;;;;;;;;;;;;;;;13.14;78.67;100237.53;89312;1262;82961;-58
2022/09/09 05:29:57;;;;;;;;;;;;;;;13.12;78.87;100238.83;89332;1262;98432;-55
2022/09/09 05:32:06;;;;;;;;;;;;;;;13.10;78.64;100241.62;89307;1262;87533;-55
2022/09/09 05:34:13;;;;;;;;;;;;;;;13.04;78.90;100243.30;89231;1263;95366;-61
2022/09/09 05:36:23;;;;;;;;;;;;;;;13.02;79.09;100244.09;89246;1262;80557;-59
2022/09/09 05:38:30;;;;;;;;;;;;;;;13.02;78.91;100248.09;89285;1262;80516;-59
2022/09/09 05:40:38;;;;;;;;;;;;;;;13.04;79.05;100246.06;89234;1262;98159;-58
2022/09/09 05:42:45;;;;;;;;;;;;;;;13.06;79.30;100240.26;89227;1261;87124;-58
2022/09/09 05:44:54;;;;;;;;;;;;;;;13.07;79.32;100244.27;89168;1263;95864;-60
2022/09/09 05:47:04;;;;;;;;;;;;;;;13.11;79.38;100246.24;89226;1262;82134;-60
2022/09/09 05:49:15;;;;;;;;;;;;;;;13.10;79.46;100247.63;89185;1262;81087;-61
2022/09/09 05:51:24;;;;;;;;;;;;;;;13.14;79.37;100244.20;89227;1262;100595;-61
2022/09/09 05:53:33;;;;;;;;;;;;;;;13.19;79.39;100246.04;89235;1262;87673;-59
2022/09/09 05:55:41;;;;;;;;;;;;;;;13.19;79.48;100247.08;89219;1262;94752;-60
2022/09/09 05:57:52;;;;;;;;;;;;;;;13.24;79.45;100244.40;89012;1264;82104;-60
2022/09/09 06:00:00;;;;;;;;;;;;;;;13.27;79.47;100242.23;89233;1261;81966;-59
2022/09/09 06:02:09;;;;;;;;;;;;;;;13.31;79.29;100243.77;89194;1261;99573;-59
2022/09/09 06:04:20;;;;;;;;;;;;;;;13.34;79.34;100244.48;89275;1263;87980;-57
2022/09/09 06:06:31;;;;;;;;;;;;;;;13.34;79.27;100247.28;89271;1261;93761;-56
2022/09/09 06:08:44;;;;;;;;;;;;;;;13.33;79.25;100250.20;89234;1263;80847;-56
2022/09/09 06:10:53;;;;;;;;;;;;;;;13.36;79.40;100251.78;89306;1261;81599;-56
2022/09/09 06:13:00;;;;;;;;;;;;;;;13.37;79.33;100251.11;89288;1261;98268;-55
2022/09/09 06:15:10;;;;;;;;;;;;;;;13.33;79.26;100251.65;89301;1262;88050;-59
2022/09/09 06:17:17;;;;;;;;;;;;;;;13.33;79.34;100253.49;89272;1261;98705;-60
2022/09/09 06:19:26;;;;;;;;;;;;;;;13.30;79.10;100261.38;89267;1262;79031;-59
2022/09/09 06:21:35;;;;;;;;;;;;;;;13.26;79.33;100262.55;89296;1263;82173;-57
2022/09/09 06:23:44;;;;;;;;;;;;;;;13.22;79.38;100268.19;89296;1261;99648;-57
2022/09/09 06:26:01;;;;;;;;;;;;;;;13.18;79.41;100269.79;89274;1262;88176;-58
2022/09/09 06:28:08;;;;;;;;;;;;;;;13.22;79.47;100268.23;89284;1261;95314;-56
2022/09/09 06:30:18;;;;;;;;;;;;;;;13.20;79.51;100266.81;89215;1262;79706;-56
2022/09/09 06:32:26;;;;;;;;;;;;;;;13.19;79.56;100270.45;89246;1261;81682;-56
2022/09/09 06:34:36;;;;;;;;;;;;;;;13.19;79.73;100269.49;89257;1262;98277;-57
2022/09/09 06:36:45;;;;;;;;;;;;;;;13.23;79.77;100268.81;89211;1263;88995;-58
2022/09/09 06:38:52;;;;;;;;;;;;;;;13.29;79.91;100270.95;89245;1263;93881;-61
2022/09/09 06:41:01;;;;;;;;;;;;;;;13.34;79.93;100270.36;89219;1261;81884;-61
2022/09/09 06:43:08;;;;;;;;;;;;;;;13.32;80.04;100269.14;89236;1262;81873;-62
2022/09/09 06:45:18;;;;;;;;;;;;;;;13.33;80.21;100268.02;89236;1261;98585;-58
2022/09/09 06:47:27;;;;;;;;;;;;;;;13.43;80.10;100268.55;89232;1263;88009;-58
2022/09/09 06:49:34;;;;;;;;;;;;;;;13.55;80.07;100273.55;89260;1261;94217;-63
2022/09/09 06:51:43;;;;;;;;;;;;;;;13.61;80.08;100272.70;89232;1262;80538;-61
2022/09/09 06:53:54;;;;;;;;;;;;;;;13.66;80.15;100279.04;89303;1261;81964;-61
2022/09/09 06:56:03;;;;;;;;;;;;;;;13.75;79.94;100278.77;89271;1261;98509;-61
2022/09/09 06:58:12;;;;;;;;;;;;;;;13.75;79.88;100283.39;89281;1262;87469;-60
2022/09/09 07:00:20;;;;;;;;;;;;;;;13.85;79.70;100280.45;89287;1262;92875;-58
2022/09/09 07:02:26;;;;;;;;;;;;;;;13.94;79.55;100284.19;89287;1262;81318;-59
2022/09/09 07:04:36;;;;;;;;;;;;;;;13.93;79.58;100281.26;89292;1262;82102;-56
2022/09/09 07:06:45;;;;;;;;;;;;;;;13.96;79.56;100279.58;89292;1262;98958;-54
2022/09/09 07:08:54;;;;;;;;;;;;;;;13.99;79.44;100280.95;89307;1262;88769;-58
2022/09/09 07:11:06;;;;;;;;;;;;;;;14.03;79.37;100282.39;89159;1263;94301;-57
2022/09/09 07:13:15;;;;;;;;;;;;;;;13.96;79.37;100286.00;89274;1263;79562;-57
2022/09/09 07:15:23;;;;;;;;;;;;;;;13.95;79.39;100290.31;89257;1263;81993;-58
2022/09/09 07:17:31;;;;;;;;;;;;;;;13.94;79.35;100288.23;89283;1263;99931;-57
2022/09/09 07:19:38;;;;;;;;;;;;;;;13.92;79.28;100287.95;89290;1263;87869;-58
2022/09/09 07:21:46;;;;;;;;;;;;;;;13.86;79.31;100285.38;89217;1261;94340;-57
2022/09/09 07:23:54;;;;;;;;;;;;;;;13.89;79.36;100288.30;89248;1261;79928;-61
2022/09/09 07:26:38;;;;;;;;;;;;;;;13.95;79.35;100294.36;86409;1301;599001;-59
2022/09/09 07:28:46;;;;;;;;;;;;;;;13.94;79.57;100296.80;88704;1272;80415;-59
2022/09/09 07:31:02;;;;;;;;;;;;;;;13.92;79.64;100296.94;88741;1273;81668;-60
2022/09/09 07:33:09;;;;;;;;;;;;;;;13.99;79.46;100299.91;88732;1273;97026;-60
2022/09/09 07:35:20;;;;;;;;;;;;;;;14.04;79.50;100298.98;88761;1272;87795;-60
2022/09/09 07:37:28;;;;;;;;;;;;;;;14.13;79.37;100303.72;88733;1272;95402;-59
2022/09/09 07:39:39;;;;;;;;;;;;;;;14.25;79.34;100300.88;88460;1272;498753;-57
2022/09/09 07:41:47;;;;;;;;;;;;;;;14.26;79.36;100302.66;88913;1270;81377;-57
2022/09/09 07:43:58;;;;;;;;;;;;;;;14.25;79.52;100302.91;88894;1270;97372;-61
2022/09/09 07:46:07;;;;;;;;;;;;;;;14.23;79.57;100303.80;88885;1270;88575;-63
2022/09/09 07:48:14;;;;;;;;;;;;;;;14.22;79.61;100299.55;88913;1270;94751;-62
2022/09/09 07:50:22;;;;;;;;;;;;;;;14.34;79.71;100302.48;88893;1270;78502;-60
2022/09/09 07:52:29;;;;;;;;;;;;;;;14.51;79.53;100302.11;88867;1270;82915;-59
2022/09/09 07:54:36;;;;;;;;;;;;;;;14.60;79.28;100307.00;88896;1270;98487;-62
2022/09/09 07:56:44;;;;;;;;;;;;;;;14.61;79.19;100307.84;89619;1259;87779;-60
2022/09/09 07:58:54;;;;;;;;;;;;;;;14.58;79.29;100314.20;89634;1259;95509;-59
2022/09/09 08:01:09;;;;;;;;;;;;;;;14.56;78.99;100319.27;89545;1260;82085;-59
2022/09/09 08:03:17;;;;;;;;;;;;;;;14.50;78.97;100321.73;89579;1259;81756;-59
2022/09/09 08:05:24;;;;;;;;;;;;;;;14.48;78.80;100323.58;89563;1260;97682;-56
2022/09/09 08:07:31;;;;;;;;;;;;;;;14.47;78.84;100325.96;89585;1260;88550;-56
2022/09/09 08:09:39;;;;;;;;;;;;;;;14.41;79.03;100332.39;89556;1260;95281;-52
2022/09/09 08:11:46;;;;;;;;;;;;;;;14.43;79.06;100330.24;89543;1260;82495;-55
2022/09/09 08:13:57;;;;;;;;;;;;;;;14.51;79.24;100335.86;89510;1260;84394;-59
2022/09/09 08:16:13;;;;;;;;;;;;;;;14.56;78.94;100336.63;89548;1260;96961;-60
2022/09/09 08:18:20;;;;;;;;;;;;;;;14.60;79.02;100342.30;89511;1260;88228;-56
2022/09/09 08:20:27;;;;;;;;;;;;;;;14.67;78.87;100339.20;89570;1260;94971;-57
2022/09/09 08:22:37;;;;;;;;;;;;;;;14.72;78.84;100339.30;89597;1260;82049;-60
2022/09/09 08:24:45;;;;;;;;;;;;;;;14.75;78.81;100342.39;89614;1259;82719;-58
2022/09/09 08:26:54;;;;;;;;;;;;;;;14.80;78.66;100341.52;89578;1259;98598;-58
2022/09/09 08:29:03;;;;;;;;;;;;;;;14.78;78.72;100340.03;89642;1259;88730;-53
2022/09/09 08:31:13;;;;;;;;;;;;;;;14.83;78.61;100343.77;89646;1260;95807;-56
2022/09/09 08:33:20;;;;;;;;;;;;;;;14.79;78.63;100343.71;89627;1260;77488;-58
2022/09/09 08:35:32;;;;;;;;;;;;;;;14.74;78.47;100342.29;89623;1259;82625;-54
2022/09/09 08:37:40;;;;;;;;;;;;;;;14.73;78.60;100341.98;89621;1259;96896;-56
2022/09/09 08:39:48;;;;;;;;;;;;;;;14.72;78.68;100346.63;89561;1260;86345;-55
2022/09/09 08:42:29;;;;;;;;;;;;;;;14.77;78.50;100348.66;89519;1259;95887;-54
2022/09/09 08:44:48;;;;;;;;;;;;;;;14.75;78.46;100354.02;89489;1259;77719;-56
2022/09/09 08:46:59;;;;;;;;;;;;;;;14.74;78.47;100354.42;89525;1259;81678;-55
2022/09/09 08:49:20;;;;;;;;;;;;;;;14.70;78.53;100345.38;89547;1259;98243;-58
2022/09/09 08:51:33;;;;;;;;;;;;;;;14.73;78.48;100350.27;89541;1259;89552;-59
2022/09/09 08:53:44;;;;;;;;;;;;;;;14.76;78.51;100350.95;89544;1260;94889;-58
2022/09/09 08:55:52;;;;;;;;;;;;;;;14.70;78.70;100353.58;89507;1259;81578;-59
2022/09/09 08:58:08;;;;;;;;;;;;;;;14.77;78.88;100354.75;89517;1259;82217;-58
2022/09/09 09:00:16;;;;;;;;;;;;;;;14.82;78.84;100354.90;89537;1260;97788;-56
2022/09/09 09:02:27;;;;;;;;;;;;;;;14.89;78.89;100352.98;89538;1259;88805;-57
2022/09/09 09:04:47;;;;;;;;;;;;;;;14.96;78.81;100356.08;89549;1260;94881;-54
2022/09/09 09:07:00;;;;;;;;;;;;;;;15.02;78.77;100354.31;89519;1259;79895;-54
2022/09/09 09:09:13;;;;;;;;;;;;;;;15.14;78.88;100355.04;89525;1261;82745;-60
2022/09/09 09:11:22;;;;;;;;;;;;;;;15.23;78.73;100352.40;89532;1260;98548;-61
2022/09/09 09:13:36;;;;;;;;;;;;;;;15.28;78.59;100356.86;89575;1259;88876;-56
2022/09/09 09:15:46;;;;;;;;;;;;;;;15.34;78.38;100360.28;89612;1259;93822;-56
2022/09/09 09:17:54;;;;;;;;;;;;;;;15.33;78.41;100360.96;89576;1259;80086;-56
2022/09/09 09:20:04;;;;;;;;;;;;;;;15.37;78.19;100361.02;89555;1259;80510;-60
2022/09/09 09:22:17;;;;;;;;;;;;;;;15.33;78.12;100370.05;89608;1260;97577;-58
2022/09/09 09:24:28;;;;;;;;;;;;;;;15.29;78.09;100370.83;89605;1259;87605;-55
2022/09/09 09:26:37;;;;;;;;;;;;;;;15.30;78.23;100370.91;89551;1260;93319;-56
2022/09/09 09:28:44;;;;;;;;;;;;;;;15.30;78.13;100375.64;89578;1259;80151;-58
2022/09/09 09:30:55;;;;;;;;;;;;;;;15.23;78.17;100377.70;89569;1259;81435;-59
2022/09/09 09:33:04;;;;;;;;;;;;;;;15.19;78.19;100380.79;89537;1260;98516;-58
2022/09/09 09:35:14;;;;;;;;;;;;;;;15.15;78.13;100377.92;89543;1259;89615;-56
2022/09/09 09:37:28;;;;;;;;;;;;;;;15.11;78.15;100377.50;89509;1260;94760;-58
2022/09/09 09:39:38;;;;;;;;;;;;;;;15.05;78.07;100374.13;89515;1260;81295;-58
2022/09/09 09:41:46;;;;;;;;;;;;;;;15.09;78.09;100376.02;89563;1259;81452;-57
2022/09/09 09:43:56;;;;;;;;;;;;;;;15.09;78.27;100377.05;89513;1259;98012;-58
2022/09/09 09:46:04;;;;;;;;;;;;;;;15.15;78.50;100377.89;89510;1260;88601;-58
2022/09/09 09:48:14;;;;;;;;;;;;;;;15.21;78.56;100380.48;89527;1260;95758;-59
2022/09/09 09:50:24;;;;;;;;;;;;;;;15.27;78.56;100379.52;89754;1260;81894;-59
2022/09/09 09:52:34;;;;;;;;;;;;;;;15.34;78.52;100377.83;89736;1260;82438;-60
2022/09/09 09:54:43;;;;;;;;;;;;;;;15.48;78.35;100374.65;89752;1259;98485;-57
2022/09/09 09:56:53;;;;;;;;;;;;;;;15.58;78.12;100380.27;89740;1259;89263;-58
2022/09/09 09:59:01;;;;;;;;;;;;;;;15.63;77.97;100383.38;89757;1259;94846;-57
2022/09/09 10:01:24;;;;;;;;;;;;;;;15.65;77.88;100378.87;89780;1260;80300;-57
2022/09/09 10:03:37;;;;;;;;;;;;;;;15.69;77.75;100376.49;89815;1259;81914;-61
2022/09/09 10:05:49;;;;;;;;;;;;;;;15.73;77.67;100377.41;89783;1259;98518;-58
2022/09/09 10:08:10;;;;;;;;;;;;;;;15.70;77.66;100378.61;89800;1260;87258;-59
2022/09/09 10:10:22;;;;;;;;;;;;;;;15.64;77.60;100384.45;89840;1259;95685;-59
2022/09/09 10:12:38;;;;;;;;;;;;;;;15.64;77.36;100389.95;89787;1259;78521;-60
2022/09/09 10:14:53;;;;;;;;;;;;;;;15.61;77.46;100385.65;89804;1259;82275;-58
2022/09/09 10:17:14;;;;;;;;;;;;;;;15.51;77.38;100391.80;89744;1259;96607;-60
2022/09/09 10:19:29;;;;;;;;;;;;;;;15.53;77.48;100395.57;89767;1260;88612;-62
2022/09/09 10:21:47;;;;;;;;;;;;;;;15.57;77.46;100393.48;89754;1260;94614;-60
2022/09/09 10:24:08;;;;;;;;;;;;;;;15.57;77.40;100394.03;89813;1259;81376;-54
2022/09/09 10:26:29;;;;;;;;;;;;;;;15.58;77.68;100398.99;89782;1259;82962;-55
2022/09/09 10:28:49;;;;;;;;;;;;;;;15.61;77.49;100399.52;89757;1260;96958;-55
2022/09/09 10:31:04;;;;;;;;;;;;;;;15.65;77.49;100402.51;89717;1260;87824;-55
2022/09/09 10:33:18;;;;;;;;;;;;;;;15.67;77.40;100406.50;89737;1260;95430;-56
2022/09/09 10:35:31;;;;;;;;;;;;;;;15.71;77.42;100408.70;89736;1260;78647;-58
2022/09/09 10:37:54;;;;;;;;;;;;;;;15.79;77.37;100413.50;89794;1260;81194;-60
2022/09/09 10:40:16;;;;;;;;;;;;;;;15.80;77.15;100417.38;89742;1259;97113;-55
2022/09/09 10:42:28;;;;;;;;;;;;;;;15.75;77.28;100423.24;89785;1259;89231;-58
2022/09/09 10:44:47;;;;;;;;;;;;;;;15.76;77.40;100427.30;89771;1259;94913;-61
2022/09/09 10:47:20;;;;;;;;;;;;;;;15.77;77.32;100434.50;89746;1259;79955;-59
2022/09/09 10:49:42;;;;;;;;;;;;;;;15.74;77.29;100437.51;89828;1260;81870;-57
2022/09/09 10:51:56;;;;;;;;;;;;;;;15.69;77.25;100439.73;89807;1259;96892;-58
2022/09/09 10:54:22;;;;;;;;;;;;;;;15.66;77.31;100437.56;89816;1259;86774;-59
2022/09/09 10:56:30;;;;;;;;;;;;;;;15.63;77.36;100439.86;89753;1260;94108;-59
2022/09/09 10:58:42;;;;;;;;;;;;;;;15.60;77.40;100442.23;89786;1260;80600;-55
2022/09/09 11:00:52;;;;;;;;;;;;;;;15.58;77.50;100443.41;89793;1259;81039;-54
2022/09/09 11:03:01;;;;;;;;;;;;;;;15.57;77.72;100447.52;89773;1259;97966;-55
2022/09/09 11:05:18;;;;;;;;;;;;;;;15.62;77.61;100446.10;89743;1259;87092;-60
2022/09/09 11:07:35;;;;;;;;;;;;;;;15.59;77.63;100446.79;89759;1260;94096;-60
2022/09/09 11:09:50;;;;;;;;;;;;;;;15.51;77.73;100447.23;89721;1260;82016;-59
2022/09/09 11:11:58;;;;;;;;;;;;;;;15.45;77.59;100452.94;89519;1259;82643;-60